Greenspond, Canada
Current Conditions -  °F | °C
As of 7:00 PM on Thursday 27 Nov 2014 (Local Time) from CYQX Reporting Station
Drizzle Drizzle  
Wind Chill: -3°   Ceiling: 200
Heat Index:   Visibility: 0.37mi
Dew Point:   Wind: 6mph
Humidity: 100%   Direction: 110°ESE
Pressure: 29.23"   Gusts: NA
Location:  49.05°N, 53.58°W
Report Text: CYQX 272200Z 11005KT 3/8SM R03/4000FT/N R13/3000FT/N -DZ FG VV002 00/00 A2923 RMK FG8 SLP907
Loading
Personal Weather Stations






























Interactive Weather Map New forecast layout! Learn more

10-Day Weather Forecast

Advertisements
Track Severe Weather on mobile